createdAt,value
2022-09-01T00:00:07.873Z,56.9765625
2022-09-01T00:01:07.807Z,57.04296875
2022-09-01T00:02:07.919Z,57.2001953125
2022-09-01T00:03:10.665Z,56.892578125
2022-09-01T00:04:08.085Z,56.802734375
2022-09-01T00:05:07.848Z,56.734375
2022-09-01T00:06:07.801Z,56.7802734375
2022-09-01T00:07:08.128Z,56.9052734375
2022-09-01T00:08:07.837Z,56.8564453125
2022-09-01T00:09:08.058Z,56.9892578125
2022-09-01T00:10:07.801Z,56.9453125
2022-09-01T00:11:07.848Z,57.244140625
2022-09-01T00:12:07.794Z,57.162109375
2022-09-01T00:13:07.760Z,57.1201171875
2022-09-01T00:14:30.405Z,57.2099609375
2022-09-01T00:15:07.906Z,57.25390625
2022-09-01T00:16:07.771Z,57.48828125
2022-09-01T00:17:07.860Z,57.4970703125
2022-09-01T00:18:07.681Z,57.4423828125
2022-09-01T00:19:08.129Z,57.353515625
2022-09-01T00:20:07.801Z,57.25390625
2022-09-01T00:21:07.721Z,57.013671875
2022-09-01T00:22:08.067Z,57.029296875
2022-09-01T00:23:07.798Z,57.0771484375
2022-09-01T00:24:08.134Z,57.16796875
2022-09-01T00:25:10.803Z,57.087890625
2022-09-01T00:26:07.882Z,57.1201171875
2022-09-01T00:27:07.858Z,57.130859375
2022-09-01T00:28:07.773Z,57.2216796875
2022-09-01T00:29:08.149Z,57.2177734375
2022-09-01T00:30:07.881Z,57.55078125
2022-09-01T00:31:07.883Z,57.5185546875
2022-09-01T00:32:07.789Z,57.373046875
2022-09-01T00:33:07.766Z,57.2373046875
2022-09-01T00:34:08.130Z,57.1396484375
2022-09-01T00:35:07.904Z,57.2080078125
2022-09-01T00:36:10.911Z,57.208984375
2022-09-01T00:37:08.202Z,57.130859375
2022-09-01T00:38:07.807Z,57.3330078125
2022-09-01T00:39:08.173Z,57.30859375
2022-09-01T00:40:07.927Z,57.298828125
2022-09-01T00:41:07.807Z,57.1943359375
2022-09-01T00:42:07.815Z,57.3857421875
2022-09-01T00:43:07.708Z,57.44140625
2022-09-01T00:44:08.138Z,57.5859375
2022-09-01T00:45:08.488Z,57.640625
2022-09-01T00:46:07.955Z,57.68359375
2022-09-01T00:47:10.834Z,57.626953125
2022-09-01T00:48:07.751Z,57.78125
2022-09-01T00:49:08.330Z,57.65625
2022-09-01T00:50:07.909Z,57.1005859375
2022-09-01T00:51:07.772Z,57.037109375
2022-09-01T00:52:08.123Z,56.8916015625
2022-09-01T00:53:07.769Z,56.7431640625
2022-09-01T00:54:08.124Z,56.9228515625
2022-09-01T00:55:07.888Z,56.9208984375
2022-09-01T00:56:07.839Z,56.9541015625
2022-09-01T00:57:07.866Z,56.919921875
2022-09-01T00:58:19.620Z,56.806640625
2022-09-01T00:59:08.064Z,56.9970703125
2022-09-01T01:00:07.787Z,56.94921875
2022-09-01T01:01:07.969Z,57.1875
2022-09-01T01:02:07.913Z,57.2294921875
2022-09-01T01:03:07.754Z,57.2490234375
2022-09-01T01:04:08.061Z,57.4990234375
2022-09-01T01:05:07.693Z,57.3720703125
2022-09-01T01:06:07.837Z,57.70703125
2022-09-01T01:07:08.064Z,57.849609375
2022-09-01T01:08:07.742Z,57.9169921875
2022-09-01T01:09:13.779Z,57.861328125
2022-09-01T01:10:07.907Z,57.921875
2022-09-01T01:11:07.912Z,57.71484375
2022-09-01T01:12:07.884Z,57.841796875
2022-09-01T01:13:07.843Z,57.7392578125
2022-09-01T01:14:08.140Z,57.828125
2022-09-01T01:15:07.821Z,57.9140625
2022-09-01T01:16:07.799Z,58.09375
2022-09-01T01:17:07.922Z,58.26171875
2022-09-01T01:18:07.670Z,58.3720703125
2022-09-01T01:19:08.126Z,58.390625
2022-09-01T01:20:10.815Z,58.416015625
2022-09-01T01:21:07.827Z,58.458984375
2022-09-01T01:22:08.127Z,58.53515625
2022-09-01T01:23:07.833Z,58.873046875
2022-09-01T01:24:08.133Z,58.89453125
2022-09-01T01:25:07.904Z,58.9365234375
2022-09-01T01:26:07.816Z,58.9365234375
2022-09-01T01:27:07.704Z,59.0830078125
2022-09-01T01:28:07.683Z,59.072265625
2022-09-01T01:29:08.136Z,59.060546875
2022-09-01T01:30:09.345Z,59.150390625
2022-09-01T01:31:10.875Z,59.1630859375
2022-09-01T01:32:07.885Z,59.08203125
2022-09-01T01:33:07.763Z,59.150390625
2022-09-01T01:34:08.130Z,59.240234375
2022-09-01T01:35:07.896Z,59.2275390625
2022-09-01T01:36:07.901Z,59.3154296875
2022-09-01T01:37:08.061Z,59.404296875
2022-09-01T01:38:07.770Z,59.462890625
2022-09-01T01:39:08.134Z,59.6298828125
2022-09-01T01:40:07.949Z,59.70703125
2022-09-01T01:41:07.795Z,59.6845703125
2022-09-01T01:42:10.825Z,59.5986328125
2022-09-01T01:43:07.771Z,59.8193359375
2022-09-01T01:44:08.130Z,60.0927734375
2022-09-01T01:45:07.877Z,59.95703125
2022-09-01T01:46:07.879Z,60.166015625
2022-09-01T01:47:07.771Z,60.21875
2022-09-01T01:48:07.760Z,60.119140625
2022-09-01T01:49:08.134Z,60.166015625
2022-09-01T01:50:07.875Z,60.1787109375
2022-09-01T01:51:07.707Z,60.3134765625
2022-09-01T01:52:08.378Z,60.40234375
2022-09-01T01:53:11.403Z,60.22265625
2022-09-01T01:54:08.069Z,60.2451171875
2022-09-01T01:55:07.784Z,60.2568359375
2022-09-01T01:56:07.848Z,60.22265625
2022-09-01T01:57:07.874Z,60.380859375
2022-09-01T01:58:07.756Z,60.4619140625
2022-09-01T01:59:08.202Z,60.765625
2022-09-01T02:00:07.847Z,60.5439453125
2022-09-01T02:01:07.876Z,60.923828125
2022-09-01T02:02:07.749Z,61.0341796875
2022-09-01T02:03:07.668Z,61.203125
2022-09-01T02:04:13.823Z,61.314453125
2022-09-01T02:05:07.883Z,61.279296875
2022-09-01T02:06:07.858Z,61.7421875
2022-09-01T02:07:08.131Z,61.490234375
2022-09-01T02:08:07.834Z,61.55078125
2022-09-01T02:09:08.906Z,61.2802734375
2022-09-01T02:10:07.806Z,61.513671875
2022-09-01T02:11:07.852Z,61.5048828125
2022-09-01T02:12:07.885Z,61.44921875
2022-09-01T02:13:07.838Z,61.4658203125
2022-09-01T02:14:07.836Z,61.2978515625
2022-09-01T02:15:13.777Z,61.220703125
2022-09-01T02:16:07.978Z,61.0302734375
2022-09-01T02:17:07.968Z,61.0888671875
2022-09-01T02:18:07.824Z,61.044921875
2022-09-01T02:19:07.835Z,61.412109375
2022-09-01T02:20:08.060Z,60.78125
2022-09-01T02:21:07.779Z,61.05078125
2022-09-01T02:22:08.131Z,60.923828125
2022-09-01T02:23:07.753Z,61.138671875
2022-09-01T02:24:07.843Z,61.2197265625
2022-09-01T02:25:08.057Z,61.5009765625
2022-09-01T02:26:17.320Z,61.5322265625
2022-09-01T02:27:07.869Z,61.40625
2022-09-01T02:28:07.698Z,61.0654296875
2022-09-01T02:29:07.881Z,61.224609375
2022-09-01T02:30:08.052Z,61.09765625
2022-09-01T02:31:07.903Z,61.07421875
2022-09-01T02:32:07.821Z,61.1474609375
2022-09-01T02:33:07.766Z,61.3369140625
2022-09-01T02:34:08.124Z,61.42578125
2022-09-01T02:35:07.921Z,61.3759765625
2022-09-01T02:36:07.898Z,61.4560546875
2022-09-01T02:37:13.836Z,61.462890625
2022-09-01T02:38:07.847Z,61.462890625
2022-09-01T02:39:08.214Z,61.5849609375
2022-09-01T02:40:07.957Z,61.759765625
2022-09-01T02:41:07.794Z,61.9951171875
2022-09-01T02:42:07.893Z,61.95703125
2022-09-01T02:43:08.050Z,62.19140625
2022-09-01T02:44:07.796Z,62.466796875
2022-09-01T02:45:07.697Z,62.783203125
2022-09-01T02:46:07.829Z,62.671875
2022-09-01T02:47:07.857Z,62.7734375
2022-09-01T02:48:13.694Z,62.853515625
2022-09-01T02:49:07.891Z,62.7138671875
2022-09-01T02:50:07.868Z,62.4931640625
2022-09-01T02:51:07.784Z,62.78515625
2022-09-01T02:52:08.144Z,62.740234375
2022-09-01T02:53:08.100Z,62.8173828125
2022-09-01T02:54:07.819Z,62.771484375
2022-09-01T02:55:07.852Z,63.02734375
2022-09-01T02:56:07.885Z,63.291015625
2022-09-01T02:57:07.840Z,63.3896484375
2022-09-01T02:58:08.132Z,63.62109375
2022-09-01T02:59:10.802Z,64.0849609375
2022-09-01T03:00:07.911Z,64.2080078125
2022-09-01T03:01:07.834Z,64.3232421875
2022-09-01T03:02:07.692Z,64.220703125
2022-09-01T03:03:08.137Z,64.3115234375
2022-09-01T03:04:07.914Z,64.2314453125
2022-09-01T03:05:07.919Z,64.263671875
2022-09-01T03:06:07.818Z,64.490234375
2022-09-01T03:07:09.618Z,64.345703125
2022-09-01T03:08:08.057Z,64.04296875
2022-09-01T03:09:07.919Z,64.1796875
2022-09-01T03:10:10.826Z,64.1953125
2022-09-01T03:11:12.669Z,64.2177734375
2022-09-01T03:12:07.729Z,64.16796875
2022-09-01T03:13:08.123Z,64.2666015625
2022-09-01T03:14:07.868Z,64.1865234375
2022-09-01T03:15:09.048Z,64.119140625
2022-09-01T03:16:07.829Z,64.2197265625
2022-09-01T03:17:07.847Z,63.8583984375
2022-09-01T03:18:08.055Z,63.689453125
2022-09-01T03:19:07.913Z,63.8076171875
2022-09-01T03:20:07.888Z,63.7294921875
2022-09-01T03:21:10.838Z,63.880859375
2022-09-01T03:22:07.882Z,63.9560546875
2022-09-01T03:23:08.129Z,64.1337890625
2022-09-01T03:24:07.879Z,64.1787109375
2022-09-01T03:25:07.804Z,64.2783203125
2022-09-01T03:26:07.873Z,64.4345703125
2022-09-01T03:27:07.712Z,64.38671875
2022-09-01T03:28:07.676Z,64.3642578125
2022-09-01T03:29:07.818Z,64.2490234375
2022-09-01T03:30:07.832Z,64.2822265625
2022-09-01T03:31:07.801Z,64.42578125
2022-09-01T03:32:10.899Z,64.3251953125
2022-09-01T03:33:08.053Z,64.3583984375
2022-09-01T03:34:07.873Z,64.560546875
2022-09-01T03:35:07.805Z,64.7080078125
2022-09-01T03:36:15.044Z,64.86328125
2022-09-01T03:37:07.927Z,64.8740234375
2022-09-01T03:38:08.061Z,64.728515625
2022-09-01T03:39:07.823Z,64.6748046875
2022-09-01T03:40:07.936Z,64.4638671875
2022-09-01T03:41:07.787Z,64.4638671875
2022-09-01T03:42:07.716Z,64.6396484375
2022-09-01T03:43:11.059Z,64.6455078125
2022-09-01T03:44:07.919Z,64.7548828125
2022-09-01T03:45:07.774Z,64.5888671875
2022-09-01T03:46:07.880Z,64.5576171875
2022-09-01T03:47:07.884Z,64.5576171875
2022-09-01T03:48:08.136Z,64.638671875
2022-09-01T03:49:07.785Z,64.8720703125
2022-09-01T03:50:07.807Z,64.9580078125
2022-09-01T03:51:07.890Z,65.111328125
2022-09-01T03:52:07.778Z,65.0556640625
2022-09-01T03:53:08.128Z,64.974609375
2022-09-01T03:54:10.824Z,64.509765625
2022-09-01T03:55:07.909Z,64.806640625
2022-09-01T03:56:07.789Z,65.0712890625
2022-09-01T03:57:07.794Z,64.9921875
2022-09-01T03:58:10.111Z,64.759765625
2022-09-01T03:59:07.858Z,64.8818359375
2022-09-01T04:00:07.827Z,64.890625
2022-09-01T04:01:08.293Z,64.9130859375
2022-09-01T04:02:07.777Z,65.189453125
2022-09-01T04:03:08.133Z,65.390625
2022-09-01T04:04:07.898Z,65.423828125
2022-09-01T04:05:10.766Z,65.623046875
2022-09-01T04:06:07.875Z,65.6884765625
2022-09-01T04:07:07.720Z,65.810546875
2022-09-01T04:08:08.128Z,65.6298828125
2022-09-01T04:09:07.889Z,65.6748046875
2022-09-01T04:10:07.868Z,65.650390625
2022-09-01T04:11:07.784Z,65.7783203125
2022-09-01T04:12:07.695Z,65.7314453125
2022-09-01T04:13:08.130Z,65.6416015625
2022-09-01T04:14:07.876Z,65.728515625
2022-09-01T04:15:07.724Z,65.9619140625
2022-09-01T04:16:10.987Z,66.0078125
2022-09-01T04:17:07.884Z,66.1279296875
2022-09-01T04:18:08.124Z,66.0712890625
2022-09-01T04:19:07.915Z,66.0341796875
2022-09-01T04:20:07.905Z,65.6689453125
2022-09-01T04:21:07.886Z,65.6591796875
2022-09-01T04:22:07.799Z,65.794921875
2022-09-01T04:23:08.059Z,65.478515625
2022-09-01T04:24:07.829Z,65.4912109375
2022-09-01T04:25:07.797Z,65.3564453125
2022-09-01T04:26:07.700Z,65.412109375
2022-09-01T04:27:10.723Z,65.6142578125
2022-09-01T04:28:08.054Z,65.650390625
2022-09-01T04:29:07.916Z,65.6357421875
2022-09-01T04:30:07.806Z,65.4599609375
2022-09-01T04:31:10.825Z,65.46875
2022-09-01T04:32:07.946Z,65.3212890625
2022-09-01T04:33:07.767Z,65.3212890625
2022-09-01T04:34:07.814Z,65.19921875
2022-09-01T04:35:07.906Z,65.0224609375
2022-09-01T04:36:07.864Z,65.447265625
2022-09-01T04:37:07.837Z,65.3291015625
2022-09-01T04:38:13.722Z,65.3173828125
2022-09-01T04:39:07.909Z,65.373046875
2022-09-01T04:40:07.826Z,65.283203125
2022-09-01T04:41:07.813Z,65.3828125
2022-09-01T04:42:07.872Z,65.55859375
2022-09-01T04:43:08.125Z,65.4794921875
2022-09-01T04:44:07.801Z,65.4150390625
2022-09-01T04:45:10.738Z,65.4150390625
2022-09-01T04:46:07.880Z,65.419921875
2022-09-01T04:47:07.902Z,65.5625
2022-09-01T04:48:08.108Z,65.484375
2022-09-01T04:49:12.929Z,65.404296875
2022-09-01T04:50:07.901Z,65.451171875
2022-09-01T04:51:07.812Z,65.4169921875
2022-09-01T04:52:07.822Z,65.6240234375
2022-09-01T04:53:08.071Z,65.5927734375
2022-09-01T04:54:07.859Z,65.6435546875
2022-09-01T04:55:07.783Z,65.7998046875
2022-09-01T04:56:07.829Z,65.982421875
2022-09-01T04:57:07.787Z,65.9189453125
2022-09-01T04:58:10.251Z,65.7099609375
2022-09-01T04:59:07.845Z,65.8056640625
2022-09-01T05:00:10.832Z,65.4404296875
2022-09-01T05:01:07.955Z,65.08203125
2022-09-01T05:02:08.026Z,65.11328125
2022-09-01T05:03:08.135Z,65.11328125
2022-09-01T05:04:07.874Z,65.052734375
2022-09-01T05:05:07.734Z,65.3115234375
2022-09-01T05:06:07.850Z,65.4365234375
2022-09-01T05:07:07.841Z,65.2802734375
2022-09-01T05:08:07.752Z,65.158203125
2022-09-01T05:09:07.804Z,65.029296875
2022-09-01T05:10:07.877Z,64.939453125
2022-09-01T05:11:10.839Z,64.8173828125
2022-09-01T05:12:07.885Z,64.345703125
2022-09-01T05:13:08.052Z,64.3935546875
2022-09-01T05:14:07.776Z,64.3759765625
2022-09-01T05:15:07.831Z,64.3349609375
2022-09-01T05:16:07.914Z,63.7490234375
2022-09-01T05:17:07.703Z,63.4306640625
2022-09-01T05:18:08.131Z,63.017578125
2022-09-01T05:19:07.885Z,62.8662109375
2022-09-01T05:20:07.887Z,62.51953125
2022-09-01T05:21:07.780Z,62.01953125
2022-09-01T05:22:10.837Z,61.5478515625
2022-09-01T05:23:07.754Z,61.1845703125
2022-09-01T05:24:07.823Z,60.9580078125
2022-09-01T05:25:07.875Z,60.8173828125
2022-09-01T05:26:07.842Z,60.353515625
2022-09-01T05:27:07.879Z,60.09375
2022-09-01T05:28:08.050Z,59.439453125
2022-09-01T05:29:07.787Z,58.8291015625
2022-09-01T05:30:07.839Z,58.2001953125
2022-09-01T05:31:07.903Z,58.337890625
2022-09-01T05:32:07.842Z,58.294921875
2022-09-01T05:33:13.698Z,58.3818359375
2022-09-01T05:34:07.907Z,58.2451171875
2022-09-01T05:35:07.888Z,58.359375
2022-09-01T05:36:07.717Z,57.966796875
2022-09-01T05:37:07.801Z,57.3486328125
2022-09-01T05:38:08.630Z,57.73046875
2022-09-01T05:39:07.786Z,57.67578125
2022-09-01T05:40:07.866Z,57.7919921875
2022-09-01T05:41:07.913Z,57.509765625
2022-09-01T05:42:07.863Z,57.8251953125
2022-09-01T05:43:08.127Z,57.5693359375
2022-09-01T05:44:10.770Z,57.51953125
2022-09-01T05:45:07.858Z,57.216796875
2022-09-01T05:46:07.793Z,57.310546875
2022-09-01T05:47:07.847Z,56.759765625
2022-09-01T05:48:08.165Z,56.53125
2022-09-01T05:49:07.865Z,56.04296875
2022-09-01T05:50:12.191Z,55.9296875
2022-09-01T05:51:22.237Z,55.8134765625
2022-09-01T05:52:07.878Z,55.802734375
2022-09-01T05:53:08.644Z,55.765625
2022-09-01T05:54:08.097Z,55.2763671875
2022-09-01T05:55:10.816Z,55.412109375
2022-09-01T05:56:07.919Z,55.3095703125
2022-09-01T05:57:30.414Z,55.251953125
2022-09-01T05:58:08.130Z,55.2646484375
2022-09-01T05:59:24.823Z,55.04296875
2022-09-01T06:00:07.806Z,55.173828125
2022-09-01T06:01:07.707Z,54.681640625
2022-09-01T06:02:07.912Z,54.462890625
2022-09-01T06:03:08.213Z,53.2431640625
2022-09-01T06:04:07.862Z,53.3369140625
2022-09-01T06:05:07.718Z,52.5654296875
2022-09-01T06:06:10.835Z,51.8203125
2022-09-01T06:07:08.959Z,51.427734375
2022-09-01T06:08:08.126Z,51.80078125
2022-09-01T06:09:08.067Z,53.1962890625
2022-09-01T06:10:07.858Z,53.091796875
2022-09-01T06:11:07.832Z,52.6640625
2022-09-01T06:12:07.691Z,52.765625
2022-09-01T06:13:08.133Z,53.1923828125
2022-09-01T06:14:07.853Z,53.0634765625
2022-09-01T06:15:07.805Z,53.48828125
2022-09-01T06:16:07.917Z,53.55859375
2022-09-01T06:17:10.755Z,53.615234375
2022-09-01T06:18:08.053Z,53.71484375
2022-09-01T06:19:07.811Z,52.978515625
2022-09-01T06:20:07.898Z,53.38671875
2022-09-01T06:21:07.824Z,53.25
2022-09-01T06:22:07.767Z,52.6748046875
2022-09-01T06:23:08.104Z,52.6953125
2022-09-01T06:24:08.223Z,52.4453125
2022-09-01T06:25:07.868Z,52.654296875
2022-09-01T06:26:07.802Z,53.0908203125
2022-09-01T06:27:07.810Z,53.4658203125
2022-09-01T06:28:13.757Z,53.26953125
2022-09-01T06:29:07.819Z,53.146484375
2022-09-01T06:30:07.829Z,52.8720703125
2022-09-01T06:31:07.943Z,52.2919921875
2022-09-01T06:32:07.890Z,52.07421875
2022-09-01T06:33:08.121Z,51.404296875
2022-09-01T06:34:07.827Z,51.009765625
2022-09-01T06:35:07.698Z,50.4892578125
2022-09-01T06:36:07.851Z,49.8857421875
2022-09-01T06:37:07.857Z,49.560546875
2022-09-01T06:38:07.681Z,49.88671875
2022-09-01T06:39:13.784Z,50.107421875
2022-09-01T06:40:07.971Z,49.55078125
2022-09-01T06:41:07.925Z,49.1943359375
2022-09-01T06:42:07.867Z,49.03125
2022-09-01T06:43:08.185Z,49.2392578125
2022-09-01T06:44:12.390Z,50.349609375
2022-09-01T06:45:07.795Z,50.3173828125
2022-09-01T06:46:07.787Z,50.0009765625
2022-09-01T06:47:07.994Z,49.197265625
2022-09-01T06:48:08.056Z,48.0126953125
2022-09-01T06:49:07.791Z,47.9765625
2022-09-01T06:50:11.012Z,47.8935546875
2022-09-01T06:51:17.109Z,48.541015625
2022-09-01T06:52:07.801Z,48.345703125
2022-09-01T06:53:34.993Z,47.818359375
2022-09-01T06:54:12.367Z,47.865234375
2022-09-01T06:55:08.130Z,47.2158203125
2022-09-01T06:56:07.800Z,47.505859375
2022-09-01T06:58:46.245Z,46.1123046875
2022-09-01T06:59:45.794Z,46.462890625
2022-09-01T07:00:45.815Z,46.466796875
2022-09-01T07:01:46.033Z,46.125
2022-09-01T07:02:45.888Z,46.6611328125
2022-09-01T07:03:52.016Z,47.23046875
2022-09-01T07:04:45.943Z,47.3193359375
2022-09-01T07:06:02.390Z,47.251953125
2022-09-01T07:07:53.399Z,47.060546875
2022-09-01T07:08:05.691Z,47.3251953125
2022-09-01T07:10:23.554Z,45.181640625
2022-09-01T07:12:08.107Z,45.4599609375
2022-09-01T07:12:26.555Z,44.943359375
2022-09-01T07:13:23.464Z,44.7587890625
2022-09-01T07:14:23.277Z,44.533203125
2022-09-01T07:17:24.006Z,43.4716796875
2022-09-01T07:18:03.101Z,42.955078125
2022-09-01T07:19:03.637Z,39.8828125
2022-09-01T07:20:25.216Z,39.7099609375
2022-09-01T07:21:07.711Z,40.708984375
2022-09-01T07:22:07.517Z,40.7158203125
2022-09-01T07:23:04.012Z,39.310546875
2022-09-01T07:24:10.397Z,38.02734375
2022-09-01T07:25:11.883Z,36.1484375
2022-09-01T07:26:04.468Z,36.119140625
2022-09-01T07:27:08.334Z,36.576171875
2022-09-01T07:28:03.153Z,36.5703125
2022-09-01T07:29:04.061Z,36.421875
2022-09-01T07:30:03.138Z,36.412109375
2022-09-01T07:31:48.866Z,36.23828125
2022-09-01T07:33:41.973Z,36.3603515625
2022-09-01T07:34:40.300Z,36.4169921875
2022-09-01T07:36:25.645Z,36.1904296875
2022-09-01T07:39:48.238Z,38.4140625
2022-09-01T07:43:33.357Z,38.845703125
2022-09-01T07:44:31.341Z,38.603515625
2022-09-01T07:45:31.355Z,39.703125
2022-09-01T07:46:37.980Z,39.48828125
2022-09-01T07:47:53.269Z,39.5205078125
2022-09-01T07:49:02.600Z,40.099609375
2022-09-01T07:49:36.638Z,41.423828125
2022-09-01T07:50:40.197Z,41.30078125
2022-09-01T07:51:35.937Z,41.7783203125
2022-09-01T07:52:31.460Z,41.4541015625
2022-09-01T07:53:31.366Z,40.9951171875
2022-09-01T07:54:31.485Z,41.2509765625
2022-09-01T07:55:31.767Z,41.763671875
2022-09-01T07:56:32.228Z,41.62890625
2022-09-01T07:57:31.442Z,41.072265625
2022-09-01T07:58:31.811Z,40.984375
2022-09-01T07:59:34.555Z,39.7060546875
2022-09-01T08:00:31.578Z,39.248046875
2022-09-01T08:01:31.497Z,40.240234375
2022-09-01T08:02:31.535Z,40.9873046875
2022-09-01T08:03:31.782Z,40.638671875
2022-09-01T08:04:31.491Z,39.2373046875
2022-09-01T08:05:31.467Z,38.705078125
2022-09-01T08:06:38.474Z,37.890625
2022-09-01T08:07:31.555Z,37.37109375
2022-09-01T08:08:32.091Z,37.8349609375
2022-09-01T08:09:37.556Z,38.115234375
2022-09-01T08:10:37.550Z,37.8369140625
2022-09-01T08:12:01.727Z,37.1572265625
2022-09-01T08:12:31.485Z,36.8974609375
2022-09-01T08:13:34.642Z,36.62109375
2022-09-01T08:14:33.793Z,36.8408203125
2022-09-01T08:15:41.005Z,36.9404296875
2022-09-01T08:16:39.355Z,37.515625
2022-09-01T08:17:50.218Z,36.8876953125
2022-09-01T08:18:47.944Z,36.435546875
2022-09-01T08:19:31.417Z,35.703125
2022-09-01T08:20:31.479Z,34.8642578125
2022-09-01T08:21:34.483Z,35.27734375
2022-09-01T08:22:31.435Z,35.1767578125
2022-09-01T08:23:31.770Z,34.904296875
2022-09-01T08:24:31.473Z,36.5439453125
2022-09-01T08:25:31.475Z,37.0966796875
2022-09-01T08:26:31.501Z,36.2041015625
2022-09-01T08:27:31.489Z,35.1318359375
2022-09-01T08:28:31.987Z,34.865234375
2022-09-01T08:29:31.499Z,34.158203125
2022-09-01T08:30:31.558Z,33.748046875
2022-09-01T08:31:31.491Z,33.544921875
2022-09-01T08:32:34.496Z,33.6572265625
2022-09-01T08:33:31.694Z,34.3154296875
2022-09-01T08:34:31.480Z,34.3173828125
2022-09-01T08:35:31.416Z,34.1943359375
2022-09-01T08:36:31.345Z,33.568359375
2022-09-01T08:37:31.454Z,33.119140625
2022-09-01T08:38:31.440Z,34.091796875
2022-09-01T08:39:31.468Z,35.0400390625
2022-09-01T08:40:31.790Z,35.45703125
2022-09-01T08:41:35.507Z,35.623046875
2022-09-01T08:42:33.074Z,36.1650390625
2022-09-01T08:43:37.436Z,35.18359375
2022-09-01T08:44:31.426Z,33.8076171875
2022-09-01T08:45:31.459Z,32.9189453125
2022-09-01T08:46:31.593Z,32.4833984375
2022-09-01T08:47:43.749Z,33.09375
2022-09-01T08:49:24.169Z,32.62890625
2022-09-01T08:49:42.597Z,32.333984375
2022-09-01T08:50:31.437Z,31.97265625
2022-09-01T08:51:31.383Z,31.4384765625
2022-09-01T08:52:31.434Z,30.5498046875
2022-09-01T08:53:32.714Z,31.4306640625
2022-09-01T08:54:34.451Z,32.7802734375
2022-09-01T08:55:31.532Z,32.671875
2022-09-01T08:56:31.447Z,32.251953125
2022-09-01T08:57:31.356Z,32.5341796875
2022-09-01T08:58:32.305Z,33.033203125
2022-09-01T08:59:31.447Z,33.11328125
2022-09-01T09:00:31.359Z,33.2919921875
2022-09-01T09:01:31.745Z,31.923828125
2022-09-01T09:02:31.708Z,32.8291015625
2022-09-01T09:03:40.524Z,34.02734375
2022-09-01T09:04:31.502Z,34.8564453125
2022-09-01T09:05:34.509Z,34.2919921875
2022-09-01T09:06:31.544Z,33.3037109375
2022-09-01T09:07:31.446Z,32.689453125
2022-09-01T09:08:33.402Z,31.7978515625
2022-09-01T09:09:34.013Z,31.7138671875
2022-09-01T09:10:31.694Z,32.423828125
2022-09-01T09:11:31.337Z,32.0234375
2022-09-01T09:12:31.477Z,33.3291015625
2022-09-01T09:13:31.696Z,33.3115234375
2022-09-01T09:14:31.559Z,32.345703125
2022-09-01T09:15:31.570Z,31.806640625
2022-09-01T09:16:34.482Z,31.72265625
2022-09-01T09:17:31.527Z,32.224609375
2022-09-01T09:18:39.811Z,32.2177734375
2022-09-01T09:19:31.538Z,32.361328125
2022-09-01T09:20:31.541Z,33.1171875
2022-09-01T09:21:31.451Z,32.998046875
2022-09-01T09:22:31.434Z,33.1357421875
2022-09-01T09:23:31.446Z,33.744140625
2022-09-01T09:24:37.927Z,35.6279296875
2022-09-01T09:25:31.703Z,35.626953125
2022-09-01T09:26:42.238Z,34.810546875
2022-09-01T09:27:34.475Z,34.0703125
2022-09-01T09:28:31.703Z,33.80859375
2022-09-01T09:29:31.521Z,33.8642578125
2022-09-01T09:30:31.590Z,33.28125
2022-09-01T09:31:31.482Z,32.91796875
2022-09-01T09:32:44.235Z,32.7822265625
2022-09-01T09:33:49.737Z,32.84375
2022-09-01T09:34:31.467Z,33.4716796875
2022-09-01T09:35:31.691Z,33.8515625
2022-09-01T09:36:31.429Z,34.1591796875
2022-09-01T09:37:31.442Z,34.2548828125
2022-09-01T09:38:37.471Z,33.91015625
2022-09-01T09:39:31.420Z,33.90234375
2022-09-01T09:40:43.274Z,33.9501953125
2022-09-01T09:41:31.609Z,34.1396484375
2022-09-01T09:42:36.406Z,34.546875
2022-09-01T09:43:31.822Z,35.6005859375
2022-09-01T09:44:31.454Z,35.4267578125
2022-09-01T09:45:31.423Z,35.318359375
2022-09-01T09:46:31.600Z,34.955078125
2022-09-01T09:47:43.203Z,35.279296875
2022-09-01T09:48:31.744Z,36.2119140625
2022-09-01T09:49:37.456Z,36.185546875
2022-09-01T09:50:31.489Z,36.1708984375
2022-09-01T09:51:31.348Z,36.0751953125
2022-09-01T09:52:33.574Z,35.9052734375
2022-09-01T09:53:31.764Z,35.943359375
2022-09-01T09:54:31.516Z,35.6083984375
2022-09-01T09:55:31.697Z,35.3857421875
2022-09-01T09:56:31.455Z,35.15625
2022-09-01T09:57:31.563Z,34.5439453125
2022-09-01T09:58:31.702Z,33.71875
2022-09-01T09:59:54.080Z,33.79296875
2022-09-01T10:00:34.622Z,33.80859375
2022-09-01T10:01:31.532Z,34.66015625
2022-09-01T10:02:31.454Z,34.6962890625
2022-09-01T10:03:31.694Z,34.4912109375
2022-09-01T10:04:31.553Z,34.0244140625
2022-09-01T10:05:31.517Z,33.271484375
2022-09-01T10:06:31.432Z,33.4052734375
2022-09-01T10:07:31.449Z,33.427734375
2022-09-01T10:08:31.534Z,33.4033203125
2022-09-01T10:09:31.470Z,33.744140625
2022-09-01T10:10:32.464Z,32.7412109375
2022-09-01T10:11:35.810Z,32.8662109375
2022-09-01T10:12:31.441Z,32.501953125
2022-09-01T10:13:33.115Z,32.376953125
2022-09-01T10:14:52.491Z,31.9453125
2022-09-01T10:15:31.435Z,31.0166015625
2022-09-01T10:16:32.061Z,31.056640625
2022-09-01T10:17:31.474Z,31.458984375
2022-09-01T10:18:31.772Z,31.1494140625
2022-09-01T10:19:35.626Z,30.8017578125
2022-09-01T10:20:31.513Z,30.3212890625
2022-09-01T10:21:31.526Z,30.115234375
2022-09-01T10:22:34.467Z,30.80859375
2022-09-01T10:23:31.774Z,30.888671875
2022-09-01T10:24:31.442Z,30.9033203125
2022-09-01T10:25:32.529Z,30.12109375
2022-09-01T10:26:31.703Z,29.638671875
2022-09-01T10:27:31.564Z,29.0595703125
2022-09-01T10:28:31.695Z,28.880859375
2022-09-01T10:29:34.773Z,29.1044921875
2022-09-01T10:30:31.499Z,28.6123046875
2022-09-01T10:31:32.724Z,27.943359375
2022-09-01T10:32:36.827Z,27.56640625
2022-09-01T10:33:37.359Z,27.1259765625
2022-09-01T10:34:31.482Z,26.7021484375
2022-09-01T10:35:31.429Z,27.0283203125
2022-09-01T10:36:31.456Z,26.6357421875
2022-09-01T10:37:31.537Z,26.0751953125
2022-09-01T10:38:31.792Z,25.8818359375
2022-09-01T10:39:32.829Z,25.9765625
2022-09-01T10:40:31.790Z,25.96875
2022-09-01T10:41:35.639Z,25.94921875
2022-09-01T10:42:31.535Z,25.5390625